This site, now in its 15th season, is a labour of love and fun from one of Ottawa's most avid time trialists and number crunchers. It adheres to and is permitted by the laws of Canada, promotes the objectives of every bicycle club whose results are shown, and is donated free of charge by myself for your enjoyment and usage. If you would like results from series you ride in to be shown here, give me (celia@drmath.ca) a shout!


Index Page
ATT OTT WTT AATT CFCTT VVVTT
Help resultformat:
Case-sensitive

OBC Open TT Series - 2018-May-17 - 15km (Rockliffe Pkwy)

Ottawa Weather (18:00): Mainly Sunny. Temp.erature: 16.7C, Wind: NNW 21 gust 30km/h, Relative humidity: 22%, Dew point: -5C, Pressure: 102.1kPa, Visibility: 24km.
Ottawa Weather (19:00): Mainly Sunny. Temp.erature: 16.1C, Wind: N 24km/h, Relative humidity: 26%, Dew point: -4C, Pressure: 102.2kPa, Visibility: 24km.
Ottawa Weather (20:00): Mainly Sunny. Temp.erature: 14.6C, Wind: N 23km/h, Relative humidity: 25%, Dew point: -5C, Pressure: 102.3kPa, Visibility: 24km.

Send photos with description (when/where/what) of yourself on or off of bike to celia@drmath.ca

It was cool with gusty winds mostly from the North, but it was bright and sunny. Many riders who were out the last couple of weeks said they found tonight to be slow. You can see those with season-series bests and get an idea of how much they improved by looking at the by looking at the Performance Ratio column. The fastest time tonight was from Alex Cataford - 18:56. You can see all of the sub 19 minute 15km results by following this link.

 
 

BESTS?
 
1 Cataford, Alex UHC 18:56 47.535 1/56 SEM 1/6  
2 Purificati, Justin RWR 19:18 46.632 2/56 SEM 2/6  
3 Rubarth, Max IND 19:35 45.957 3/56 SEM 3/6  
4 Diaz, Rodrigo  OBC/EUR 20:18 44.335 4/56 VBM 1/9 0.9186
5 St-Pierre, Martin RPO 20:20 44.262 5/56 VBM 2/9  
6 Danner, Dale CYC 20:49 43.235 6/56 VCM 1/10  
7 Austen, Timothy RWR 21:19 42.220 7/56 SEM 4/6 0.8054
8 Moon, Clay RWR 21:29 41.893 8/56 SEM 5/6  
9 Burge, Craig  CYC 21:40 41.538 9/56 VCM 2/10 1.0951
10 Martins, Alex OBC 21:41 41.507 10/56 VBM 3/9  
11 Mullington, Chris WQW 21:45 41.379 11/56 VDM 1/9 0.9749
12 Graveline, Marc OBC 22:04 40.785 12/56 VCM 3/10  
Harrington, Benjamin OBC 22:04 40.785 12/56 CAM 1/3 1.2599
14 Tregunno, Peter  OBC 22:13 40.510 14/56 VBM 4/9  
15 Page, Graham OBC/NTF 22:14 40.480 15/56 VAM 1/3 0.9623
16 Hiscocks, Mark NTF 22:21 40.268 16/56 VBM 5/9  
17 Gelinas, Brandon IND 22:25 40.149 17/56 SEM 6/6  
18 Clarke, Shawn SRC/CYC 22:33 39.911 18/56 VAM 2/3 1.1634
19 Till, Michael WQW 22:41 39.677 19/56 VCM 4/10 0.9869
20 Corpuz, John OBC 22:55 39.273 20/56 VAM 3/3 1.0022
21 Rudnicki, Dave WQW 22:57 39.216 21/56 VCM 5/10 1.0308
22 Courteille, Anaïs IND 23:03 39.046 22/56 VAF 1/1  
23 Girard, Nicolas OBC 23:13 38.765 23/56 CAM 2/3 0.9204
24 Thompson, William OBC 23:17 38.654 24/56 VCM 6/10  
25 Redshaw, Russ  OBC 23:28 38.352 25/56 VDM 2/9  
26 Mayrand, Isabelle IND 23:31 38.271 26/56 SEF 1/2  
27 Leblanc, Marc EUR 23:33 38.217 27/56 VBM 6/9  
28 DeVidi, Robert  OBC 23:39 38.055 28/56 VCM 7/10 0.8842
29 Cheff, Emmanuel CDO 23:46 37.868 29/56 CAM 3/3  
Dickson, Matthew OBC 23:46 37.868 29/56 JUM 1/3  
31 Omura, Tommy OBC 23:50 37.762 31/56 JUM 2/3  
32 Rivoche, Michael WQW 24:05 37.370 32/56 VDM 3/9  
33 Messier, Jill WQW 24:10 37.241 33/56 SEF 2/2 1.3360
34 Deschamps, Martin WQW 24:11 37.216 34/56 VBM 7/9 0.9775
35 Dorego, Jean-Louis OBC 24:17 37.062 35/56 VDM 4/9  
36 Tkalec, Heather  EUR 24:29 36.760 36/56 VBF 1/2  
37 Milette, Laury OBC 24:34 36.635 37/56 CAF 1/3 1.0518
38 Davis, Doug OBC 24:45 36.364 38/56 VCM 8/10 1.0306
39 Markel, Dan OBC 24:55 36.120 39/56 VBM 8/9 1.0222
40 Arsenault, Ariane CDO 25:02 35.952 40/56 CAF 2/3 0.9940
41 Moerman, Bram  OBC 25:07 35.833 41/56 VEM 1/1  
42 Bourne, Bill OBC 25:20 35.526 42/56 VDM 5/9 0.9175
43 Véronneau, Marc OBC 25:25 35.410 43/56 VCM 9/10  
44 Dumas, Marcel OBC 26:04 34.527 44/56 VCM 10/10  
45 Hauschildt, Gunter OBC 26:11 34.373 45/56 VBM 9/9  
46 Austen, Ian  OBC 26:17 34.242 46/56 VDM 6/9 0.9924
Beauchamp, Angela  EUR 26:17 34.242 46/56 VBF 2/2 1.2975
48 Dumas, Dominik OBC 26:27 34.026 48/56 JUM 3/3 0.9461
49 Imbrogno, Giorgio  OBC 26:43 33.687 49/56 VDM 7/9  
50 Shand, Peter OBC 26:50 33.540 50/56 VDM 8/9  
51 Gervais, Dominique OBC 26:57 33.395 51/56 JUF 1/1 0.8723
52 Monette, Gary WQW 28:04 32.067 52/56 VDM 9/9  
53 McInnis, Celia  OBC 28:16 31.840 53/56 VDF 1/2 0.9930
54 Drapeau, Blanche OBC 30:33 29.460 54/56 VDF 2/2  
55 Martins, Amanda OBC 33:35 26.799 55/56 CAF 3/3  
56 Deveer, Cooper OBC 35:58 25.023 56/56 BBM 1/1  
 
Average Speed of all of the above 56 finishes (840km in 22:31:15):37.299
>>>Average of the Average Speeds for these 56 finishes37.841<<<
 

The number of data records shown above is 56
The server processing of your query took: 0 wallclock secs ( 0.11 usr + 0.00 sys = 0.11 CPU)

Thanks to our Helpers: Michel Bernier, Joel Katz, Mark Manners, Alex McKnight, Jess Raymond, Peter Tregunno

     


Mar 30 (Good Friday)
May 1 (10km) May 3 May 8 (10km) May 10 May 15 (10km)
  May 17  
May 22 (10km) May 24 May 29 (10km) May 31
Jun 5 Jun 5 Jun 7 Jun 12 Jun 12 Jun 14 Jun 17 (40km) Jun 19 Jun 19 Jun 21 Jun 26 Jun 26 Jun 28
Jul 3 Jul 3 Jul 5 Jul 8 (40km) Jul 10 Jul 10 Jul 12 Jul 17 Jul 17 Jul 19 Jul 24 Jul 24 Jul 26 Jul 31 Jul 31
Aug 2 Aug 5 (40km) Aug 7 Aug 7 Aug 9 Aug 14 Aug 14 Aug 16 Aug 21 Aug 21 Aug 23 Aug 28 Aug 28 (Invitational) Aug 30#1 (Eddie Merckx) Aug 30#2 (With Aero)
Sep 2 (40km) Sep 4 Sep 6 Sep 11 Sep 13 Sep 18

OTT Rankings
Best       Best by category
WTT Rankings for All Participants
5 Best Speeds (≥3 15km, ≤1 10km)     5 Best Speeds (≥3 15km, ≤1 10km) by category
OTT Best Three 15km Rankings
Overall     by category     age-Hcap Female   age-Hcap Male
Other years
TT Calculator All TT People All TT events
ABC Home VVV Home
CKAP GOLD MEDAL
Other Links

Note: OTT data from 2003 through 2006-Apr-14 and 2007-Apr-06-? and WTT from 2008-? is taken from the official OBC site.

Please send your comments and suggestions to: Celia McInnis
Copyright © 1998-2011 Celia McInnis. All rights reserved. Links are welcomed.